Terminal Aerodrome Forecast
Issued by NWS St Louis, MO

Home | Current Version | Previous Version | Text Only | Print | Product List | Glossary On
Versions: 1 2 3 4 5 6 7 8 9 10 11 12 13 14 15 16
000
FTUS43 KLSX 220900 AAA
TAFCOU
TAF AMD
KCOU 220913Z 2209/2306 28007KT P6SM SCT250
     FM221800 VRB04KT P6SM BKN120=

USA.gov is the U.S. government's official web portal to all federal, state and local government web resources and services.